sensor_id;sensor_type;location;lat;lon;timestamp;P1;durP1;ratioP1;P2;durP2;ratioP2
71343;SDS011;59146;43.850;25.948;2024-03-25T00:01:11;5.32;;;4.35;;
71343;SDS011;59146;43.850;25.948;2024-03-25T00:03:37;5.88;;;4.45;;
71343;SDS011;59146;43.850;25.948;2024-03-25T00:06:03;5.82;;;4.82;;
71343;SDS011;59146;43.850;25.948;2024-03-25T00:08:28;6.80;;;4.97;;
71343;SDS011;59146;43.850;25.948;2024-03-25T00:10:54;5.75;;;4.55;;
71343;SDS011;59146;43.850;25.948;2024-03-25T00:13:20;9.45;;;4.78;;
71343;SDS011;59146;43.850;25.948;2024-03-25T00:15:46;9.27;;;4.45;;
71343;SDS011;59146;43.850;25.948;2024-03-25T00:18:14;4.90;;;4.38;;
71343;SDS011;59146;43.850;25.948;2024-03-25T00:20:39;5.38;;;4.65;;
71343;SDS011;59146;43.850;25.948;2024-03-25T00:23:05;4.78;;;4.28;;
71343;SDS011;59146;43.850;25.948;2024-03-25T00:25:30;6.40;;;5.30;;
71343;SDS011;59146;43.850;25.948;2024-03-25T00:27:56;8.75;;;4.93;;
71343;SDS011;59146;43.850;25.948;2024-03-25T00:30:22;4.75;;;4.30;;
71343;SDS011;59146;43.850;25.948;2024-03-25T00:32:49;5.70;;;4.78;;
71343;SDS011;59146;43.850;25.948;2024-03-25T00:35:14;5.13;;;4.63;;
71343;SDS011;59146;43.850;25.948;2024-03-25T00:37:40;5.28;;;4.55;;
71343;SDS011;59146;43.850;25.948;2024-03-25T00:40:06;6.90;;;4.20;;
71343;SDS011;59146;43.850;25.948;2024-03-25T00:42:32;5.30;;;4.78;;
71343;SDS011;59146;43.850;25.948;2024-03-25T00:44:58;6.40;;;4.80;;
71343;SDS011;59146;43.850;25.948;2024-03-25T00:47:24;6.45;;;4.78;;
71343;SDS011;59146;43.850;25.948;2024-03-25T00:49:51;5.80;;;5.00;;
71343;SDS011;59146;43.850;25.948;2024-03-25T00:52:16;8.75;;;4.68;;
71343;SDS011;59146;43.850;25.948;2024-03-25T00:54:42;6.68;;;4.90;;
71343;SDS011;59146;43.850;25.948;2024-03-25T00:57:07;6.63;;;4.97;;
71343;SDS011;59146;43.850;25.948;2024-03-25T00:59:33;6.90;;;4.35;;
71343;SDS011;59146;43.850;25.948;2024-03-25T01:01:59;6.65;;;4.80;;
71343;SDS011;59146;43.850;25.948;2024-03-25T01:04:24;9.82;;;5.40;;
71343;SDS011;59146;43.850;25.948;2024-03-25T01:06:50;5.75;;;4.78;;
71343;SDS011;59146;43.850;25.948;2024-03-25T01:09:15;7.07;;;4.65;;
71343;SDS011;59146;43.850;25.948;2024-03-25T01:11:41;5.85;;;4.78;;
71343;SDS011;59146;43.850;25.948;2024-03-25T01:14:06;9.60;;;5.32;;
71343;SDS011;59146;43.850;25.948;2024-03-25T01:16:32;6.45;;;5.55;;
71343;SDS011;59146;43.850;25.948;2024-03-25T01:18:58;7.18;;;5.53;;
71343;SDS011;59146;43.850;25.948;2024-03-25T01:21:24;7.45;;;6.00;;
71343;SDS011;59146;43.850;25.948;2024-03-25T01:23:50;9.07;;;5.80;;
71343;SDS011;59146;43.850;25.948;2024-03-25T01:26:15;8.55;;;5.55;;
71343;SDS011;59146;43.850;25.948;2024-03-25T01:28:41;8.30;;;5.90;;
71343;SDS011;59146;43.850;25.948;2024-03-25T01:31:07;6.57;;;5.95;;
71343;SDS011;59146;43.850;25.948;2024-03-25T01:33:33;7.78;;;6.35;;
71343;SDS011;59146;43.850;25.948;2024-03-25T01:35:59;8.45;;;6.15;;
71343;SDS011;59146;43.850;25.948;2024-03-25T01:38:25;8.20;;;6.40;;
71343;SDS011;59146;43.850;25.948;2024-03-25T01:40:50;10.90;;;6.55;;
71343;SDS011;59146;43.850;25.948;2024-03-25T01:43:16;9.02;;;6.72;;
71343;SDS011;59146;43.850;25.948;2024-03-25T01:45:42;9.57;;;6.88;;
71343;SDS011;59146;43.850;25.948;2024-03-25T01:48:08;9.38;;;6.57;;
71343;SDS011;59146;43.850;25.948;2024-03-25T01:50:36;8.88;;;6.68;;
71343;SDS011;59146;43.850;25.948;2024-03-25T01:53:04;9.25;;;6.18;;
71343;SDS011;59146;43.850;25.948;2024-03-25T01:55:30;8.38;;;5.57;;
71343;SDS011;59146;43.850;25.948;2024-03-25T01:57:59;8.15;;;5.78;;
71343;SDS011;59146;43.850;25.948;2024-03-25T02:00:25;6.22;;;4.93;;
71343;SDS011;59146;43.850;25.948;2024-03-25T02:02:52;7.15;;;5.35;;
71343;SDS011;59146;43.850;25.948;2024-03-25T02:05:18;6.25;;;5.07;;
71343;SDS011;59146;43.850;25.948;2024-03-25T02:07:44;7.55;;;5.75;;
71343;SDS011;59146;43.850;25.948;2024-03-25T02:10:10;7.97;;;5.78;;
71343;SDS011;59146;43.850;25.948;2024-03-25T02:12:39;10.73;;;7.05;;
71343;SDS011;59146;43.850;25.948;2024-03-25T02:15:07;9.15;;;7.00;;
71343;SDS011;59146;43.850;25.948;2024-03-25T02:17:33;8.77;;;6.50;;
71343;SDS011;59146;43.850;25.948;2024-03-25T02:19:59;9.57;;;7.47;;
71343;SDS011;59146;43.850;25.948;2024-03-25T02:22:25;8.73;;;7.57;;
71343;SDS011;59146;43.850;25.948;2024-03-25T02:24:52;10.27;;;7.55;;
71343;SDS011;59146;43.850;25.948;2024-03-25T02:27:18;9.00;;;6.75;;
71343;SDS011;59146;43.850;25.948;2024-03-25T02:29:44;11.85;;;7.78;;
71343;SDS011;59146;43.850;25.948;2024-03-25T02:32:10;10.20;;;7.70;;
71343;SDS011;59146;43.850;25.948;2024-03-25T02:34:39;11.35;;;8.20;;
71343;SDS011;59146;43.850;25.948;2024-03-25T02:37:17;11.17;;;7.60;;
71343;SDS011;59146;43.850;25.948;2024-03-25T02:39:43;10.40;;;8.52;;
71343;SDS011;59146;43.850;25.948;2024-03-25T02:42:09;11.60;;;8.70;;
71343;SDS011;59146;43.850;25.948;2024-03-25T02:44:35;13.38;;;9.55;;
71343;SDS011;59146;43.850;25.948;2024-03-25T02:47:01;14.45;;;10.15;;
71343;SDS011;59146;43.850;25.948;2024-03-25T02:49:29;16.83;;;10.55;;
71343;SDS011;59146;43.850;25.948;2024-03-25T02:51:54;16.40;;;11.32;;
71343;SDS011;59146;43.850;25.948;2024-03-25T02:54:20;14.90;;;10.35;;
71343;SDS011;59146;43.850;25.948;2024-03-25T02:56:47;13.77;;;10.02;;
71343;SDS011;59146;43.850;25.948;2024-03-25T02:59:12;15.18;;;10.60;;
71343;SDS011;59146;43.850;25.948;2024-03-25T03:01:38;15.80;;;10.60;;
71343;SDS011;59146;43.850;25.948;2024-03-25T03:04:04;13.95;;;10.18;;
71343;SDS011;59146;43.850;25.948;2024-03-25T03:06:29;15.40;;;10.60;;
71343;SDS011;59146;43.850;25.948;2024-03-25T03:08:55;13.63;;;10.40;;
71343;SDS011;59146;43.850;25.948;2024-03-25T03:11:20;14.45;;;10.55;;
71343;SDS011;59146;43.850;25.948;2024-03-25T03:13:46;13.35;;;9.93;;
71343;SDS011;59146;43.850;25.948;2024-03-25T03:16:11;16.60;;;11.10;;
71343;SDS011;59146;43.850;25.948;2024-03-25T03:18:37;16.42;;;10.98;;
71343;SDS011;59146;43.850;25.948;2024-03-25T03:21:02;15.13;;;11.00;;
71343;SDS011;59146;43.850;25.948;2024-03-25T03:23:28;12.80;;;10.07;;
71343;SDS011;59146;43.850;25.948;2024-03-25T03:25:54;16.02;;;10.75;;
71343;SDS011;59146;43.850;25.948;2024-03-25T03:28:20;14.25;;;10.90;;
71343;SDS011;59146;43.850;25.948;2024-03-25T03:30:48;13.30;;;10.68;;
71343;SDS011;59146;43.850;25.948;2024-03-25T03:33:14;14.32;;;10.55;;
71343;SDS011;59146;43.850;25.948;2024-03-25T03:35:39;14.38;;;10.73;;
71343;SDS011;59146;43.850;25.948;2024-03-25T03:38:05;13.38;;;9.63;;
71343;SDS011;59146;43.850;25.948;2024-03-25T03:40:31;14.60;;;10.45;;
71343;SDS011;59146;43.850;25.948;2024-03-25T03:42:57;15.15;;;10.52;;
71343;SDS011;59146;43.850;25.948;2024-03-25T03:45:24;16.55;;;10.90;;
71343;SDS011;59146;43.850;25.948;2024-03-25T03:47:50;18.60;;;11.45;;
71343;SDS011;59146;43.850;25.948;2024-03-25T03:50:15;18.20;;;11.38;;
71343;SDS011;59146;43.850;25.948;2024-03-25T03:52:41;15.65;;;10.90;;
71343;SDS011;59146;43.850;25.948;2024-03-25T03:55:07;16.08;;;10.48;;
71343;SDS011;59146;43.850;25.948;2024-03-25T03:57:32;13.02;;;9.68;;
71343;SDS011;59146;43.850;25.948;2024-03-25T03:59:58;16.13;;;10.68;;
71343;SDS011;59146;43.850;25.948;2024-03-25T04:02:24;16.77;;;10.80;;
71343;SDS011;59146;43.850;25.948;2024-03-25T04:04:51;14.27;;;10.63;;
71343;SDS011;59146;43.850;25.948;2024-03-25T04:07:16;18.02;;;11.40;;
71343;SDS011;59146;43.850;25.948;2024-03-25T04:09:42;15.93;;;10.70;;
71343;SDS011;59146;43.850;25.948;2024-03-25T04:12:08;16.45;;;11.20;;
71343;SDS011;59146;43.850;25.948;2024-03-25T04:14:34;15.05;;;10.90;;
71343;SDS011;59146;43.850;25.948;2024-03-25T04:16:59;16.50;;;9.98;;
71343;SDS011;59146;43.850;25.948;2024-03-25T04:19:25;17.10;;;10.77;;
71343;SDS011;59146;43.850;25.948;2024-03-25T04:21:54;15.75;;;11.57;;
71343;SDS011;59146;43.850;25.948;2024-03-25T04:24:21;16.38;;;10.38;;
71343;SDS011;59146;43.850;25.948;2024-03-25T04:26:46;17.38;;;10.57;;
71343;SDS011;59146;43.850;25.948;2024-03-25T04:29:13;14.70;;;8.60;;
71343;SDS011;59146;43.850;25.948;2024-03-25T04:31:40;13.27;;;8.38;;
71343;SDS011;59146;43.850;25.948;2024-03-25T04:34:05;13.43;;;8.85;;
71343;SDS011;59146;43.850;25.948;2024-03-25T04:36:31;8.77;;;6.80;;
71343;SDS011;59146;43.850;25.948;2024-03-25T04:38:56;15.00;;;8.57;;
71343;SDS011;59146;43.850;25.948;2024-03-25T04:41:22;16.02;;;9.93;;
71343;SDS011;59146;43.850;25.948;2024-03-25T04:43:48;15.82;;;8.38;;
71343;SDS011;59146;43.850;25.948;2024-03-25T04:46:13;11.90;;;8.70;;
71343;SDS011;59146;43.850;25.948;2024-03-25T04:48:39;17.15;;;8.80;;
71343;SDS011;59146;43.850;25.948;2024-03-25T04:51:04;12.65;;;8.43;;
71343;SDS011;59146;43.850;25.948;2024-03-25T04:53:30;10.73;;;7.95;;
71343;SDS011;59146;43.850;25.948;2024-03-25T04:55:56;14.95;;;8.13;;
71343;SDS011;59146;43.850;25.948;2024-03-25T04:58:22;8.82;;;6.35;;
71343;SDS011;59146;43.850;25.948;2024-03-25T05:00:48;5.78;;;4.20;;
71343;SDS011;59146;43.850;25.948;2024-03-25T05:03:13;5.72;;;3.45;;
71343;SDS011;59146;43.850;25.948;2024-03-25T05:05:39;2.78;;;1.60;;
71343;SDS011;59146;43.850;25.948;2024-03-25T05:08:04;1.30;;;1.17;;
71343;SDS011;59146;43.850;25.948;2024-03-25T05:10:30;1.58;;;1.40;;
71343;SDS011;59146;43.850;25.948;2024-03-25T05:12:55;1.27;;;1.17;;
71343;SDS011;59146;43.850;25.948;2024-03-25T05:15:22;2.70;;;1.30;;
71343;SDS011;59146;43.850;25.948;2024-03-25T05:17:50;4.43;;;1.27;;
71343;SDS011;59146;43.850;25.948;2024-03-25T05:20:16;2.42;;;1.77;;
71343;SDS011;59146;43.850;25.948;2024-03-25T05:22:41;1.33;;;1.15;;
71343;SDS011;59146;43.850;25.948;2024-03-25T05:25:07;1.00;;;0.90;;
71343;SDS011;59146;43.850;25.948;2024-03-25T05:27:32;1.20;;;0.80;;
71343;SDS011;59146;43.850;25.948;2024-03-25T05:29:58;1.27;;;1.17;;
71343;SDS011;59146;43.850;25.948;2024-03-25T05:32:23;4.63;;;1.35;;
71343;SDS011;59146;43.850;25.948;2024-03-25T05:34:49;2.00;;;1.13;;
71343;SDS011;59146;43.850;25.948;2024-03-25T05:37:14;3.95;;;1.50;;
71343;SDS011;59146;43.850;25.948;2024-03-25T05:39:40;2.60;;;0.98;;
71343;SDS011;59146;43.850;25.948;2024-03-25T05:42:06;1.83;;;1.13;;
71343;SDS011;59146;43.850;25.948;2024-03-25T05:44:31;1.38;;;1.10;;
71343;SDS011;59146;43.850;25.948;2024-03-25T05:46:57;2.22;;;1.70;;
71343;SDS011;59146;43.850;25.948;2024-03-25T05:49:22;2.25;;;1.70;;
71343;SDS011;59146;43.850;25.948;2024-03-25T05:51:48;3.78;;;2.17;;
71343;SDS011;59146;43.850;25.948;2024-03-25T05:54:14;1.30;;;0.80;;
71343;SDS011;59146;43.850;25.948;2024-03-25T05:56:39;1.85;;;1.23;;
71343;SDS011;59146;43.850;25.948;2024-03-25T05:59:05;0.70;;;0.70;;
71343;SDS011;59146;43.850;25.948;2024-03-25T06:01:31;2.33;;;0.80;;
71343;SDS011;59146;43.850;25.948;2024-03-25T06:03:56;1.13;;;1.02;;
71343;SDS011;59146;43.850;25.948;2024-03-25T06:06:22;2.13;;;1.88;;
71343;SDS011;59146;43.850;25.948;2024-03-25T06:08:48;1.58;;;1.48;;
71343;SDS011;59146;43.850;25.948;2024-03-25T06:11:15;3.35;;;1.52;;
71343;SDS011;59146;43.850;25.948;2024-03-25T06:13:45;2.45;;;1.30;;
71343;SDS011;59146;43.850;25.948;2024-03-25T06:16:11;1.42;;;1.10;;
71343;SDS011;59146;43.850;25.948;2024-03-25T06:18:37;1.67;;;1.17;;
71343;SDS011;59146;43.850;25.948;2024-03-25T06:21:03;1.27;;;1.05;;
71343;SDS011;59146;43.850;25.948;2024-03-25T06:23:28;1.67;;;0.93;;
71343;SDS011;59146;43.850;25.948;2024-03-25T06:25:55;1.92;;;1.30;;
71343;SDS011;59146;43.850;25.948;2024-03-25T06:28:21;1.13;;;1.00;;
71343;SDS011;59146;43.850;25.948;2024-03-25T06:30:47;2.38;;;1.50;;
71343;SDS011;59146;43.850;25.948;2024-03-25T06:33:32;1.95;;;1.30;;
71343;SDS011;59146;43.850;25.948;2024-03-25T06:36:16;1.70;;;1.35;;
71343;SDS011;59146;43.850;25.948;2024-03-25T06:38:42;1.50;;;1.35;;
71343;SDS011;59146;43.850;25.948;2024-03-25T06:41:08;2.05;;;1.50;;
71343;SDS011;59146;43.850;25.948;2024-03-25T06:43:34;4.15;;;1.77;;
71343;SDS011;59146;43.850;25.948;2024-03-25T06:45:59;2.80;;;1.80;;
71343;SDS011;59146;43.850;25.948;2024-03-25T06:48:25;1.15;;;1.02;;
71343;SDS011;59146;43.850;25.948;2024-03-25T06:50:54;2.47;;;1.60;;
71343;SDS011;59146;43.850;25.948;2024-03-25T06:53:21;2.67;;;1.60;;
71343;SDS011;59146;43.850;25.948;2024-03-25T06:55:59;3.15;;;1.52;;
71343;SDS011;59146;43.850;25.948;2024-03-25T06:58:26;1.70;;;1.50;;
71343;SDS011;59146;43.850;25.948;2024-03-25T07:00:53;4.65;;;1.23;;
71343;SDS011;59146;43.850;25.948;2024-03-25T07:03:20;2.55;;;1.52;;
71343;SDS011;59146;43.850;25.948;2024-03-25T07:05:48;1.05;;;1.00;;
71343;SDS011;59146;43.850;25.948;2024-03-25T07:08:15;2.42;;;0.90;;
71343;SDS011;59146;43.850;25.948;2024-03-25T07:10:44;1.20;;;1.10;;
71343;SDS011;59146;43.850;25.948;2024-03-25T07:13:10;1.85;;;1.05;;
71343;SDS011;59146;43.850;25.948;2024-03-25T07:15:36;3.13;;;1.20;;
71343;SDS011;59146;43.850;25.948;2024-03-25T07:18:02;1.17;;;0.85;;
71343;SDS011;59146;43.850;25.948;2024-03-25T07:20:28;2.40;;;1.17;;
71343;SDS011;59146;43.850;25.948;2024-03-25T07:22:54;1.52;;;1.05;;
71343;SDS011;59146;43.850;25.948;2024-03-25T07:25:24;1.35;;;1.10;;
71343;SDS011;59146;43.850;25.948;2024-03-25T07:27:50;2.55;;;1.13;;
71343;SDS011;59146;43.850;25.948;2024-03-25T07:30:16;3.42;;;1.35;;
71343;SDS011;59146;43.850;25.948;2024-03-25T07:32:41;0.88;;;0.80;;
71343;SDS011;59146;43.850;25.948;2024-03-25T07:35:07;2.08;;;1.23;;
71343;SDS011;59146;43.850;25.948;2024-03-25T07:37:34;0.95;;;0.80;;
71343;SDS011;59146;43.850;25.948;2024-03-25T07:40:00;2.78;;;0.80;;
71343;SDS011;59146;43.850;25.948;2024-03-25T07:42:26;3.03;;;0.60;;
71343;SDS011;59146;43.850;25.948;2024-03-25T07:44:51;1.55;;;0.90;;
71343;SDS011;59146;43.850;25.948;2024-03-25T07:47:20;3.15;;;1.02;;
71343;SDS011;59146;43.850;25.948;2024-03-25T07:49:45;4.18;;;1.08;;
71343;SDS011;59146;43.850;25.948;2024-03-25T07:52:11;2.22;;;1.15;;
71343;SDS011;59146;43.850;25.948;2024-03-25T07:54:36;1.17;;;1.05;;
71343;SDS011;59146;43.850;25.948;2024-03-25T07:57:03;2.42;;;1.00;;
71343;SDS011;59146;43.850;25.948;2024-03-25T07:59:29;1.25;;;1.15;;
71343;SDS011;59146;43.850;25.948;2024-03-25T08:01:55;1.95;;;1.55;;
71343;SDS011;59146;43.850;25.948;2024-03-25T08:04:21;1.33;;;1.23;;
71343;SDS011;59146;43.850;25.948;2024-03-25T08:06:46;2.20;;;1.17;;
71343;SDS011;59146;43.850;25.948;2024-03-25T08:09:12;2.53;;;1.33;;
71343;SDS011;59146;43.850;25.948;2024-03-25T08:11:40;2.75;;;1.33;;
71343;SDS011;59146;43.850;25.948;2024-03-25T08:14:06;2.38;;;1.40;;
71343;SDS011;59146;43.850;25.948;2024-03-25T08:16:31;1.42;;;1.33;;
71343;SDS011;59146;43.850;25.948;2024-03-25T08:18:57;1.90;;;1.20;;
71343;SDS011;59146;43.850;25.948;2024-03-25T08:21:22;1.70;;;1.15;;
71343;SDS011;59146;43.850;25.948;2024-03-25T08:23:48;1.23;;;1.13;;
71343;SDS011;59146;43.850;25.948;2024-03-25T08:26:13;2.05;;;0.93;;
71343;SDS011;59146;43.850;25.948;2024-03-25T08:28:39;1.55;;;1.10;;
71343;SDS011;59146;43.850;25.948;2024-03-25T08:31:04;1.23;;;1.00;;
71343;SDS011;59146;43.850;25.948;2024-03-25T08:33:30;1.80;;;1.05;;
71343;SDS011;59146;43.850;25.948;2024-03-25T08:35:56;1.50;;;1.30;;
71343;SDS011;59146;43.850;25.948;2024-03-25T08:38:22;2.83;;;1.30;;
71343;SDS011;59146;43.850;25.948;2024-03-25T08:40:47;2.03;;;1.27;;
71343;SDS011;59146;43.850;25.948;2024-03-25T08:43:13;1.58;;;1.40;;
71343;SDS011;59146;43.850;25.948;2024-03-25T08:45:39;2.10;;;1.65;;
71343;SDS011;59146;43.850;25.948;2024-03-25T08:48:05;3.03;;;1.60;;
71343;SDS011;59146;43.850;25.948;2024-03-25T08:50:31;2.05;;;1.67;;
71343;SDS011;59146;43.850;25.948;2024-03-25T08:53:00;2.72;;;1.92;;
71343;SDS011;59146;43.850;25.948;2024-03-25T08:55:26;1.83;;;1.70;;
71343;SDS011;59146;43.850;25.948;2024-03-25T08:57:52;1.30;;;1.20;;
71343;SDS011;59146;43.850;25.948;2024-03-25T09:00:18;0.70;;;0.70;;
71343;SDS011;59146;43.850;25.948;2024-03-25T09:02:44;1.67;;;1.02;;
71343;SDS011;59146;43.850;25.948;2024-03-25T09:05:09;1.63;;;1.10;;
71343;SDS011;59146;43.850;25.948;2024-03-25T09:07:35;1.58;;;1.23;;
71343;SDS011;59146;43.850;25.948;2024-03-25T09:10:02;3.45;;;1.60;;
71343;SDS011;59146;43.850;25.948;2024-03-25T09:12:46;2.88;;;1.92;;
71343;SDS011;59146;43.850;25.948;2024-03-25T09:15:12;2.05;;;1.42;;
71343;SDS011;59146;43.850;25.948;2024-03-25T09:17:37;2.45;;;1.35;;
71343;SDS011;59146;43.850;25.948;2024-03-25T09:20:04;1.30;;;1.10;;
71343;SDS011;59146;43.850;25.948;2024-03-25T09:22:41;1.10;;;1.00;;
71343;SDS011;59146;43.850;25.948;2024-03-25T09:25:06;2.38;;;1.02;;
71343;SDS011;59146;43.850;25.948;2024-03-25T09:27:32;0.70;;;0.60;;
71343;SDS011;59146;43.850;25.948;2024-03-25T09:29:58;0.73;;;0.40;;
71343;SDS011;59146;43.850;25.948;2024-03-25T09:32:23;0.40;;;0.40;;
71343;SDS011;59146;43.850;25.948;2024-03-25T09:34:50;1.67;;;0.60;;
71343;SDS011;59146;43.850;25.948;2024-03-25T09:37:17;0.95;;;0.90;;
71343;SDS011;59146;43.850;25.948;2024-03-25T09:39:42;0.88;;;0.57;;
71343;SDS011;59146;43.850;25.948;2024-03-25T09:42:08;0.73;;;0.70;;
71343;SDS011;59146;43.850;25.948;2024-03-25T09:44:39;0.80;;;0.80;;
71343;SDS011;59146;43.850;25.948;2024-03-25T09:47:04;0.98;;;0.73;;
71343;SDS011;59146;43.850;25.948;2024-03-25T09:49:30;1.23;;;1.13;;
71343;SDS011;59146;43.850;25.948;2024-03-25T09:51:57;0.70;;;0.50;;
71343;SDS011;59146;43.850;25.948;2024-03-25T09:54:23;1.27;;;1.15;;
71343;SDS011;59146;43.850;25.948;2024-03-25T09:56:50;0.60;;;0.60;;
71343;SDS011;59146;43.850;25.948;2024-03-25T09:59:15;0.63;;;0.63;;
71343;SDS011;59146;43.850;25.948;2024-03-25T10:01:42;2.08;;;1.55;;
71343;SDS011;59146;43.850;25.948;2024-03-25T10:04:08;1.02;;;0.93;;
71343;SDS011;59146;43.850;25.948;2024-03-25T10:06:34;0.40;;;0.40;;
71343;SDS011;59146;43.850;25.948;2024-03-25T10:09:00;0.65;;;0.50;;
71343;SDS011;59146;43.850;25.948;2024-03-25T10:11:31;0.60;;;0.60;;
71343;SDS011;59146;43.850;25.948;2024-03-25T10:14:00;0.70;;;0.60;;
71343;SDS011;59146;43.850;25.948;2024-03-25T10:16:27;0.65;;;0.65;;
71343;SDS011;59146;43.850;25.948;2024-03-25T10:18:55;1.58;;;0.90;;
71343;SDS011;59146;43.850;25.948;2024-03-25T10:21:20;1.33;;;1.23;;
71343;SDS011;59146;43.850;25.948;2024-03-25T10:23:47;0.70;;;0.70;;
71343;SDS011;59146;43.850;25.948;2024-03-25T10:26:29;1.00;;;0.90;;
71343;SDS011;59146;43.850;25.948;2024-03-25T10:29:02;0.93;;;0.77;;
71343;SDS011;59146;43.850;25.948;2024-03-25T10:31:32;0.70;;;0.70;;
71343;SDS011;59146;43.850;25.948;2024-03-25T10:33:59;0.70;;;0.70;;
71343;SDS011;59146;43.850;25.948;2024-03-25T10:36:25;0.73;;;0.70;;
71343;SDS011;59146;43.850;25.948;2024-03-25T10:38:53;1.27;;;1.00;;
71343;SDS011;59146;43.850;25.948;2024-03-25T10:41:20;0.88;;;0.77;;
71343;SDS011;59146;43.850;25.948;2024-03-25T10:43:47;1.02;;;0.95;;
71343;SDS011;59146;43.850;25.948;2024-03-25T10:46:20;0.95;;;0.85;;
71343;SDS011;59146;43.850;25.948;2024-03-25T10:48:48;1.40;;;1.30;;
71343;SDS011;59146;43.850;25.948;2024-03-25T10:51:20;1.17;;;0.90;;
71343;SDS011;59146;43.850;25.948;2024-03-25T10:53:48;0.50;;;0.50;;
71343;SDS011;59146;43.850;25.948;2024-03-25T10:56:19;0.50;;;0.43;;
71343;SDS011;59146;43.850;25.948;2024-03-25T10:58:47;1.00;;;0.63;;
71343;SDS011;59146;43.850;25.948;2024-03-25T11:01:19;0.50;;;0.50;;
71343;SDS011;59146;43.850;25.948;2024-03-25T11:03:45;1.20;;;0.60;;
71343;SDS011;59146;43.850;25.948;2024-03-25T11:06:15;0.57;;;0.57;;
71343;SDS011;59146;43.850;25.948;2024-03-25T11:08:42;0.75;;;0.75;;
71343;SDS011;59146;43.850;25.948;2024-03-25T11:11:12;2.47;;;1.00;;
71343;SDS011;59146;43.850;25.948;2024-03-25T11:13:38;1.27;;;1.17;;
71343;SDS011;59146;43.850;25.948;2024-03-25T11:16:04;0.90;;;0.70;;
71343;SDS011;59146;43.850;25.948;2024-03-25T11:18:31;1.13;;;0.90;;
71343;SDS011;59146;43.850;25.948;2024-03-25T11:21:05;4.00;;;0.98;;
71343;SDS011;59146;43.850;25.948;2024-03-25T11:23:36;1.23;;;1.00;;
71343;SDS011;59146;43.850;25.948;2024-03-25T11:26:20;5.18;;;1.02;;
71343;SDS011;59146;43.850;25.948;2024-03-25T11:28:46;4.55;;;0.82;;
71343;SDS011;59146;43.850;25.948;2024-03-25T11:31:12;1.08;;;0.98;;
71343;SDS011;59146;43.850;25.948;2024-03-25T11:33:40;0.85;;;0.80;;
71343;SDS011;59146;43.850;25.948;2024-03-25T11:36:06;0.90;;;0.70;;
71343;SDS011;59146;43.850;25.948;2024-03-25T11:38:32;1.38;;;1.10;;
71343;SDS011;59146;43.850;25.948;2024-03-25T11:40:59;2.72;;;2.05;;
71343;SDS011;59146;43.850;25.948;2024-03-25T11:43:25;3.35;;;2.00;;
71343;SDS011;59146;43.850;25.948;2024-03-25T11:45:50;1.20;;;1.08;;
71343;SDS011;59146;43.850;25.948;2024-03-25T11:48:19;3.13;;;2.00;;
71343;SDS011;59146;43.850;25.948;2024-03-25T11:50:46;1.13;;;0.93;;
71343;SDS011;59146;43.850;25.948;2024-03-25T11:53:13;0.65;;;0.63;;
71343;SDS011;59146;43.850;25.948;2024-03-25T11:55:48;2.05;;;0.90;;
71343;SDS011;59146;43.850;25.948;2024-03-25T11:58:14;0.88;;;0.77;;
71343;SDS011;59146;43.850;25.948;2024-03-25T12:00:46;0.90;;;0.82;;
71343;SDS011;59146;43.850;25.948;2024-03-25T12:03:18;1.00;;;0.80;;
71343;SDS011;59146;43.850;25.948;2024-03-25T12:05:44;0.70;;;0.70;;
71343;SDS011;59146;43.850;25.948;2024-03-25T12:08:10;0.88;;;0.60;;
71343;SDS011;59146;43.850;25.948;2024-03-25T12:10:37;0.80;;;0.80;;
71343;SDS011;59146;43.850;25.948;2024-03-25T12:13:21;2.53;;;0.80;;
71343;SDS011;59146;43.850;25.948;2024-03-25T12:15:47;0.80;;;0.80;;
71343;SDS011;59146;43.850;25.948;2024-03-25T12:18:13;0.98;;;0.50;;
71343;SDS011;59146;43.850;25.948;2024-03-25T12:20:40;1.02;;;0.80;;
71343;SDS011;59146;43.850;25.948;2024-03-25T12:23:05;1.52;;;1.00;;
71343;SDS011;59146;43.850;25.948;2024-03-25T12:25:31;2.13;;;0.88;;
71343;SDS011;59146;43.850;25.948;2024-03-25T12:27:56;0.80;;;0.80;;
71343;SDS011;59146;43.850;25.948;2024-03-25T12:30:23;1.20;;;0.95;;
71343;SDS011;59146;43.850;25.948;2024-03-25T12:32:50;1.10;;;0.75;;
71343;SDS011;59146;43.850;25.948;2024-03-25T12:35:16;1.00;;;0.90;;
71343;SDS011;59146;43.850;25.948;2024-03-25T12:37:43;2.40;;;0.80;;
71343;SDS011;59146;43.850;25.948;2024-03-25T12:40:10;2.13;;;1.00;;
71343;SDS011;59146;43.850;25.948;2024-03-25T12:42:38;1.27;;;1.10;;
71343;SDS011;59146;43.850;25.948;2024-03-25T12:45:06;1.50;;;0.82;;
71343;SDS011;59146;43.850;25.948;2024-03-25T12:47:32;3.28;;;1.83;;
71343;SDS011;59146;43.850;25.948;2024-03-25T12:49:58;2.58;;;1.20;;
71343;SDS011;59146;43.850;25.948;2024-03-25T12:52:24;1.00;;;1.00;;
71343;SDS011;59146;43.850;25.948;2024-03-25T12:54:50;1.73;;;1.30;;
71343;SDS011;59146;43.850;25.948;2024-03-25T12:57:16;1.30;;;1.00;;
71343;SDS011;59146;43.850;25.948;2024-03-25T12:59:43;1.73;;;0.98;;
71343;SDS011;59146;43.850;25.948;2024-03-25T13:02:09;1.15;;;1.05;;
71343;SDS011;59146;43.850;25.948;2024-03-25T13:04:36;1.73;;;1.08;;
71343;SDS011;59146;43.850;25.948;2024-03-25T13:07:06;1.85;;;1.17;;
71343;SDS011;59146;43.850;25.948;2024-03-25T13:09:32;2.05;;;1.20;;
71343;SDS011;59146;43.850;25.948;2024-03-25T13:11:57;2.25;;;1.35;;
71343;SDS011;59146;43.850;25.948;2024-03-25T13:14:23;3.53;;;1.40;;
71343;SDS011;59146;43.850;25.948;2024-03-25T13:16:49;3.05;;;1.17;;
71343;SDS011;59146;43.850;25.948;2024-03-25T13:19:15;2.05;;;1.08;;
71343;SDS011;59146;43.850;25.948;2024-03-25T13:21:40;1.30;;;1.20;;
71343;SDS011;59146;43.850;25.948;2024-03-25T13:24:06;3.17;;;1.10;;
71343;SDS011;59146;43.850;25.948;2024-03-25T13:26:32;3.53;;;1.10;;
71343;SDS011;59146;43.850;25.948;2024-03-25T13:28:58;1.23;;;1.13;;
71343;SDS011;59146;43.850;25.948;2024-03-25T13:31:24;1.40;;;1.30;;
71343;SDS011;59146;43.850;25.948;2024-03-25T13:33:49;5.03;;;1.45;;
71343;SDS011;59146;43.850;25.948;2024-03-25T13:36:17;2.22;;;1.50;;
71343;SDS011;59146;43.850;25.948;2024-03-25T13:38:43;3.15;;;1.80;;
71343;SDS011;59146;43.850;25.948;2024-03-25T13:41:09;2.28;;;1.80;;
71343;SDS011;59146;43.850;25.948;2024-03-25T13:43:35;1.60;;;1.50;;
71343;SDS011;59146;43.850;25.948;2024-03-25T13:46:00;2.47;;;1.13;;
71343;SDS011;59146;43.850;25.948;2024-03-25T13:48:26;2.97;;;1.13;;
71343;SDS011;59146;43.850;25.948;2024-03-25T13:50:54;3.15;;;1.45;;
71343;SDS011;59146;43.850;25.948;2024-03-25T13:53:20;1.27;;;1.00;;
71343;SDS011;59146;43.850;25.948;2024-03-25T13:55:45;2.53;;;1.38;;
71343;SDS011;59146;43.850;25.948;2024-03-25T13:58:11;2.35;;;1.08;;
71343;SDS011;59146;43.850;25.948;2024-03-25T14:00:37;3.97;;;1.20;;
71343;SDS011;59146;43.850;25.948;2024-03-25T14:03:03;3.92;;;2.00;;
71343;SDS011;59146;43.850;25.948;2024-03-25T14:05:29;3.53;;;2.42;;
71343;SDS011;59146;43.850;25.948;2024-03-25T14:07:54;4.78;;;2.08;;
71343;SDS011;59146;43.850;25.948;2024-03-25T14:10:21;3.72;;;2.25;;
71343;SDS011;59146;43.850;25.948;2024-03-25T14:12:47;3.58;;;2.33;;
71343;SDS011;59146;43.850;25.948;2024-03-25T14:15:13;5.97;;;2.83;;
71343;SDS011;59146;43.850;25.948;2024-03-25T14:17:38;9.75;;;2.50;;
71343;SDS011;59146;43.850;25.948;2024-03-25T14:20:04;8.60;;;2.60;;
71343;SDS011;59146;43.850;25.948;2024-03-25T14:22:31;5.10;;;2.75;;
71343;SDS011;59146;43.850;25.948;2024-03-25T14:24:58;6.97;;;3.90;;
71343;SDS011;59146;43.850;25.948;2024-03-25T14:27:24;6.03;;;3.42;;